createdAt,value
2023-12-22T00:00:35.468Z,54.81
2023-12-22T00:01:35.557Z,51.49
2023-12-22T00:02:35.614Z,55.99
2023-12-22T00:03:35.748Z,52.93
2023-12-22T00:04:35.765Z,53.65
2023-12-22T00:05:35.866Z,52.96
2023-12-22T00:06:35.935Z,51.13
2023-12-22T00:07:35.978Z,51.00
2023-12-22T00:08:36.076Z,54.90
2023-12-22T00:09:36.153Z,52.85
2023-12-22T00:10:36.245Z,52.19
2023-12-22T00:11:36.259Z,52.34
2023-12-22T00:12:36.332Z,51.75
2023-12-22T00:13:36.766Z,54.27
2023-12-22T00:14:36.485Z,52.59
2023-12-22T00:15:36.535Z,53.07
2023-12-22T00:16:36.722Z,50.89
2023-12-22T00:17:36.666Z,50.63
2023-12-22T00:18:36.825Z,50.82
2023-12-22T00:19:37.074Z,52.02
2023-12-22T00:20:36.927Z,53.20
2023-12-22T00:21:36.953Z,51.83
2023-12-22T00:22:37.087Z,52.14
2023-12-22T00:23:37.220Z,53.68
2023-12-22T00:24:37.159Z,51.14
2023-12-22T00:25:37.294Z,51.26
2023-12-22T00:26:37.317Z,53.46
2023-12-22T00:27:37.320Z,52.48
2023-12-22T00:28:37.502Z,53.14
2023-12-22T00:29:37.495Z,53.26
2023-12-22T00:30:37.605Z,53.48
2023-12-22T00:31:37.690Z,51.72
2023-12-22T00:32:37.738Z,54.64
2023-12-22T00:33:37.910Z,52.89
2023-12-22T00:34:37.862Z,51.63
2023-12-22T00:35:37.894Z,51.35
2023-12-22T00:36:37.962Z,53.40
2023-12-22T00:37:38.045Z,52.77
2023-12-22T00:38:38.124Z,52.61
2023-12-22T00:39:38.128Z,52.33
2023-12-22T00:40:38.292Z,50.50
2023-12-22T00:41:38.286Z,51.96
2023-12-22T00:42:38.360Z,52.94
2023-12-22T00:43:38.439Z,50.98
2023-12-22T00:44:38.497Z,52.35
2023-12-22T00:45:38.590Z,51.27
2023-12-22T00:46:38.740Z,52.35
2023-12-22T00:47:38.720Z,53.19
2023-12-22T00:48:38.783Z,51.40
2023-12-22T00:49:38.853Z,50.72
2023-12-22T00:50:38.924Z,51.71
2023-12-22T00:51:38.984Z,52.03
2023-12-22T00:52:39.065Z,50.31
2023-12-22T00:53:39.254Z,50.00
2023-12-22T00:54:39.189Z,50.34
2023-12-22T00:55:39.273Z,53.54
2023-12-22T00:56:39.324Z,52.20
2023-12-22T00:57:39.381Z,52.16
2023-12-22T00:58:39.776Z,53.29
2023-12-22T00:59:39.535Z,51.33
2023-12-22T01:00:39.643Z,52.91
2023-12-22T01:01:39.767Z,52.25
2023-12-22T01:02:39.692Z,52.89
2023-12-22T01:03:39.813Z,53.78
2023-12-22T01:04:39.882Z,51.65
2023-12-22T01:05:40.009Z,52.26
2023-12-22T01:06:40.031Z,52.79
2023-12-22T01:07:40.790Z,50.72
2023-12-22T01:08:40.233Z,53.02
2023-12-22T01:09:40.125Z,52.47
2023-12-22T01:10:40.227Z,54.08
2023-12-22T01:11:40.222Z,53.81
2023-12-22T01:12:40.324Z,51.26
2023-12-22T01:13:40.414Z,51.63
2023-12-22T01:14:40.432Z,54.54
2023-12-22T01:15:40.524Z,53.28
2023-12-22T01:16:40.644Z,54.66
2023-12-22T01:17:40.714Z,53.96
2023-12-22T01:18:41.297Z,53.16
2023-12-22T01:19:40.859Z,50.57
2023-12-22T01:20:40.882Z,52.43
2023-12-22T01:21:40.937Z,52.07
2023-12-22T01:22:41.102Z,51.23
2023-12-22T01:23:41.111Z,52.38
2023-12-22T01:24:41.187Z,52.49
2023-12-22T01:25:41.330Z,52.14
2023-12-22T01:26:41.285Z,52.72
2023-12-22T01:27:41.367Z,52.03
2023-12-22T01:28:41.531Z,51.09
2023-12-22T01:29:41.717Z,50.95
2023-12-22T01:30:41.578Z,53.59
2023-12-22T01:31:41.708Z,51.61
2023-12-22T01:32:41.698Z,53.74
2023-12-22T01:33:41.751Z,51.63
2023-12-22T01:34:41.846Z,51.92
2023-12-22T01:35:41.867Z,50.01
2023-12-22T01:36:41.910Z,52.06
2023-12-22T01:37:42.002Z,51.81
2023-12-22T01:38:42.040Z,51.55
2023-12-22T01:39:42.076Z,51.65
2023-12-22T01:40:42.137Z,49.47
2023-12-22T01:41:42.175Z,52.21
2023-12-22T01:42:42.267Z,52.09
2023-12-22T01:43:42.300Z,51.62
2023-12-22T01:44:42.321Z,51.25
2023-12-22T01:45:42.368Z,55.68
2023-12-22T01:46:42.421Z,55.35
2023-12-22T01:47:42.459Z,53.54
2023-12-22T01:48:42.578Z,53.30
2023-12-22T01:49:42.790Z,54.80
2023-12-22T01:50:42.573Z,52.03
2023-12-22T01:51:42.594Z,50.00
2023-12-22T01:52:42.689Z,53.91
2023-12-22T01:53:42.678Z,51.11
2023-12-22T01:54:42.654Z,52.24
2023-12-22T01:55:42.728Z,51.58
2023-12-22T01:56:42.736Z,52.81
2023-12-22T01:57:42.797Z,51.93
2023-12-22T01:58:42.802Z,53.16
2023-12-22T01:59:42.832Z,52.18
2023-12-22T02:00:42.873Z,54.12
2023-12-22T02:01:43.043Z,53.37
2023-12-22T02:02:42.959Z,53.88
2023-12-22T02:03:43.073Z,51.61
2023-12-22T02:04:43.147Z,52.16
2023-12-22T02:05:43.195Z,51.65
2023-12-22T02:06:43.145Z,51.73
2023-12-22T02:07:43.307Z,53.23
2023-12-22T02:08:43.229Z,53.05
2023-12-22T02:09:43.324Z,53.71
2023-12-22T02:10:43.419Z,53.07
2023-12-22T02:11:43.380Z,52.75
2023-12-22T02:12:43.439Z,51.54
2023-12-22T02:13:43.461Z,51.77
2023-12-22T02:14:43.745Z,51.43
2023-12-22T02:15:43.550Z,52.18
2023-12-22T02:16:43.603Z,50.65
2023-12-22T02:17:43.661Z,52.42
2023-12-22T02:18:43.736Z,53.44
2023-12-22T02:19:43.792Z,53.06
2023-12-22T02:20:43.729Z,52.69
2023-12-22T02:21:43.769Z,53.71
2023-12-22T02:22:43.843Z,51.44
2023-12-22T02:23:43.859Z,53.43
2023-12-22T02:24:43.919Z,52.27
2023-12-22T02:25:43.988Z,52.15
2023-12-22T02:26:44.003Z,53.91
2023-12-22T02:27:44.762Z,51.24
2023-12-22T02:28:44.174Z,54.18
2023-12-22T02:29:44.260Z,53.26
2023-12-22T02:30:44.206Z,52.08
2023-12-22T02:31:44.412Z,53.13
2023-12-22T02:32:44.438Z,53.54
2023-12-22T02:33:44.373Z,52.32
2023-12-22T02:34:44.540Z,53.50
2023-12-22T02:35:44.457Z,52.54
2023-12-22T02:36:44.567Z,51.91
2023-12-22T02:37:44.592Z,51.25
2023-12-22T02:38:44.659Z,51.70
2023-12-22T02:39:44.806Z,52.97
2023-12-22T02:40:44.773Z,52.88
2023-12-22T02:41:44.752Z,52.50
2023-12-22T02:42:44.773Z,51.79
2023-12-22T02:43:44.886Z,53.05
2023-12-22T02:44:44.875Z,52.66
2023-12-22T02:45:44.888Z,53.75
2023-12-22T02:46:44.969Z,50.69
2023-12-22T02:47:45.027Z,50.99
2023-12-22T02:48:45.024Z,53.21
2023-12-22T02:49:45.282Z,53.09
2023-12-22T02:50:45.064Z,51.38
2023-12-22T02:51:45.080Z,51.09
2023-12-22T02:52:45.166Z,53.27
2023-12-22T02:53:45.151Z,50.65
2023-12-22T02:54:45.210Z,51.29
2023-12-22T02:55:45.377Z,54.39
2023-12-22T02:56:45.248Z,50.17
2023-12-22T02:57:45.251Z,53.82
2023-12-22T02:58:45.320Z,52.72
2023-12-22T02:59:45.328Z,53.87
2023-12-22T03:00:45.346Z,52.28
2023-12-22T03:01:45.387Z,52.99
2023-12-22T03:02:45.345Z,53.97
2023-12-22T03:03:45.469Z,52.34
2023-12-22T03:04:45.446Z,51.71
2023-12-22T03:05:45.459Z,54.21
2023-12-22T03:06:45.486Z,53.36
2023-12-22T03:07:45.543Z,52.96
2023-12-22T03:08:45.563Z,52.61
2023-12-22T03:09:45.739Z,54.08
2023-12-22T03:10:45.635Z,52.83
2023-12-22T03:11:45.624Z,50.48
2023-12-22T03:12:45.633Z,52.61
2023-12-22T03:13:45.737Z,52.14
2023-12-22T03:14:45.716Z,52.47
2023-12-22T03:15:45.745Z,53.18
2023-12-22T03:16:45.783Z,55.01
2023-12-22T03:17:45.864Z,54.03
2023-12-22T03:18:45.885Z,53.68
2023-12-22T03:19:45.908Z,53.24
2023-12-22T03:20:45.864Z,51.87
2023-12-22T03:21:45.907Z,51.50
2023-12-22T03:22:45.950Z,51.12
2023-12-22T03:23:45.978Z,52.11
2023-12-22T03:24:46.040Z,54.64
2023-12-22T03:25:46.040Z,53.09
2023-12-22T03:26:46.030Z,54.00
2023-12-22T03:27:46.219Z,52.82
2023-12-22T03:28:46.080Z,53.95
2023-12-22T03:29:46.099Z,53.69
2023-12-22T03:30:46.107Z,51.96
2023-12-22T03:31:46.084Z,53.08
2023-12-22T03:32:46.112Z,51.96
2023-12-22T03:33:46.117Z,53.14
2023-12-22T03:34:46.348Z,54.39
2023-12-22T03:35:46.137Z,50.79
2023-12-22T03:36:46.154Z,54.25
2023-12-22T03:37:46.376Z,54.66
2023-12-22T03:38:46.767Z,55.61
2023-12-22T03:39:46.236Z,53.34
2023-12-22T03:40:46.216Z,52.82
2023-12-22T03:41:46.252Z,54.20
2023-12-22T03:42:46.267Z,54.60
2023-12-22T03:43:46.327Z,54.16
2023-12-22T03:44:46.279Z,51.53
2023-12-22T03:45:46.273Z,51.21
2023-12-22T03:46:46.352Z,53.13
2023-12-22T03:47:46.574Z,53.22
2023-12-22T03:48:46.372Z,52.85
2023-12-22T03:49:46.396Z,53.51
2023-12-22T03:50:46.393Z,54.47
2023-12-22T03:51:46.381Z,52.58
2023-12-22T03:52:46.476Z,53.62
2023-12-22T03:54:05.105Z,50.00
2023-12-22T03:55:05.089Z,50.00
2023-12-22T03:56:05.137Z,50.00
2023-12-22T03:57:05.071Z,50.00
2023-12-22T03:58:05.097Z,50.00
2023-12-22T03:59:05.110Z,50.00
2023-12-22T04:00:05.108Z,51.04
2023-12-22T04:01:05.112Z,53.06
2023-12-22T04:02:05.162Z,52.65
2023-12-22T04:03:05.180Z,53.02
2023-12-22T04:04:05.133Z,52.26
2023-12-22T04:05:05.183Z,53.66
2023-12-22T04:06:05.121Z,52.84
2023-12-22T04:07:05.093Z,51.67
2023-12-22T04:08:05.175Z,53.09
2023-12-22T04:09:05.136Z,53.67
2023-12-22T04:10:05.157Z,50.86
2023-12-22T04:11:05.103Z,51.74
2023-12-22T04:12:05.116Z,53.05
2023-12-22T04:13:05.133Z,52.40
2023-12-22T04:14:05.105Z,52.55
2023-12-22T04:15:05.111Z,51.62
2023-12-22T04:16:05.164Z,53.54
2023-12-22T04:17:05.139Z,55.08
2023-12-22T04:18:05.220Z,52.45
2023-12-22T04:19:06.142Z,52.41
2023-12-22T04:20:05.149Z,53.54
2023-12-22T04:21:05.133Z,53.16
2023-12-22T04:22:05.119Z,51.95
2023-12-22T04:23:05.155Z,52.46
2023-12-22T04:24:05.159Z,54.85
2023-12-22T04:25:05.151Z,55.46
2023-12-22T04:26:05.157Z,52.23
2023-12-22T04:27:05.164Z,54.40
2023-12-22T04:28:05.165Z,54.31
2023-12-22T04:29:05.177Z,52.55
2023-12-22T04:30:05.215Z,53.22
2023-12-22T04:31:12.419Z,50.00
2023-12-22T04:32:12.400Z,50.00
2023-12-22T04:33:12.487Z,50.00
2023-12-22T04:34:12.459Z,50.00
2023-12-22T04:35:12.438Z,50.00
2023-12-22T04:36:12.444Z,51.70
2023-12-22T04:37:12.462Z,50.34
2023-12-22T04:38:12.448Z,54.04
2023-12-22T04:39:12.468Z,51.64
2023-12-22T04:40:12.444Z,51.75
2023-12-22T04:41:12.417Z,50.00
2023-12-22T04:42:12.456Z,51.96
2023-12-22T04:43:12.446Z,49.15
2023-12-22T04:44:12.445Z,52.26
2023-12-22T04:45:12.421Z,52.65
2023-12-22T04:46:12.432Z,51.26
2023-12-22T04:47:12.447Z,51.16
2023-12-22T04:48:12.511Z,51.18
2023-12-22T04:49:12.556Z,50.24
2023-12-22T04:50:12.525Z,51.67
2023-12-22T04:51:12.429Z,51.58
2023-12-22T04:52:12.463Z,50.75
2023-12-22T04:53:12.523Z,51.73
2023-12-22T04:54:12.454Z,52.20
2023-12-22T04:55:12.602Z,52.19
2023-12-22T04:56:12.491Z,50.66
2023-12-22T04:57:13.605Z,52.41
2023-12-22T04:58:12.486Z,51.10
2023-12-22T04:59:12.465Z,51.97
2023-12-22T05:00:12.530Z,51.21
2023-12-22T05:01:12.525Z,52.84
2023-12-22T05:02:12.520Z,52.45
2023-12-22T05:03:12.586Z,53.87
2023-12-22T05:04:12.633Z,52.35
2023-12-22T05:05:12.630Z,52.88
2023-12-22T05:06:12.934Z,52.42
2023-12-22T05:07:12.896Z,54.50
2023-12-22T05:08:12.908Z,54.16
2023-12-22T05:09:12.868Z,51.98
2023-12-22T05:10:12.840Z,53.62
2023-12-22T05:11:12.901Z,52.55
2023-12-22T05:12:12.926Z,52.53
2023-12-22T05:13:12.996Z,53.80
2023-12-22T05:14:13.086Z,51.04
2023-12-22T05:15:13.102Z,52.25
2023-12-22T05:16:13.087Z,52.92
2023-12-22T05:17:13.125Z,53.27
2023-12-22T05:18:13.260Z,51.68
2023-12-22T05:19:13.244Z,52.49
2023-12-22T05:20:13.632Z,50.76
2023-12-22T05:21:13.391Z,51.17
2023-12-22T05:22:13.413Z,53.59
2023-12-22T05:23:13.505Z,54.97
2023-12-22T05:24:13.483Z,52.97
2023-12-22T05:25:13.503Z,53.59
2023-12-22T05:26:13.590Z,52.10
2023-12-22T05:27:13.531Z,52.79
2023-12-22T05:28:13.585Z,50.64
2023-12-22T05:29:13.634Z,53.08
2023-12-22T05:30:13.628Z,50.84
2023-12-22T05:31:13.635Z,52.61
2023-12-22T05:32:13.648Z,53.73
2023-12-22T05:33:13.691Z,53.12
2023-12-22T05:34:14.602Z,52.82
2023-12-22T05:35:13.939Z,51.58
2023-12-22T05:36:13.761Z,51.95
2023-12-22T05:37:13.773Z,51.54
2023-12-22T05:38:13.791Z,51.33
2023-12-22T05:39:13.854Z,52.07
2023-12-22T05:40:13.883Z,54.08
2023-12-22T05:41:13.845Z,52.93
2023-12-22T05:42:13.892Z,52.10
2023-12-22T05:43:13.907Z,50.00
2023-12-22T05:44:13.934Z,50.19
2023-12-22T05:45:13.938Z,50.23
2023-12-22T05:46:13.959Z,51.70
2023-12-22T05:47:14.025Z,50.69
2023-12-22T05:48:14.127Z,52.93
2023-12-22T05:49:14.190Z,53.60
2023-12-22T05:50:14.360Z,50.93
2023-12-22T05:51:14.067Z,54.83
2023-12-22T05:52:14.099Z,50.00
2023-12-22T05:53:14.086Z,53.46
2023-12-22T05:54:14.168Z,52.31
2023-12-22T05:55:14.155Z,51.52
2023-12-22T05:56:14.168Z,51.92
2023-12-22T05:57:14.193Z,53.03
2023-12-22T05:58:14.235Z,53.20
2023-12-22T05:59:14.261Z,53.55
2023-12-22T06:00:14.277Z,52.06
2023-12-22T06:01:14.310Z,51.72
2023-12-22T06:02:14.338Z,53.12
2023-12-22T06:03:14.388Z,52.19
2023-12-22T06:04:14.378Z,51.47
2023-12-22T06:05:14.502Z,52.06
2023-12-22T06:06:14.459Z,51.39
2023-12-22T06:07:14.479Z,51.22
2023-12-22T06:08:14.457Z,48.71
2023-12-22T06:09:14.479Z,51.41
2023-12-22T06:10:14.524Z,50.71
2023-12-22T06:11:14.545Z,49.74
2023-12-22T06:12:14.619Z,49.43
2023-12-22T06:13:14.584Z,53.34
2023-12-22T06:14:14.620Z,50.00
2023-12-22T06:15:14.655Z,50.00
2023-12-22T06:16:14.651Z,53.30
2023-12-22T06:17:14.691Z,53.08
2023-12-22T06:18:14.792Z,53.10
2023-12-22T06:19:14.792Z,51.92
2023-12-22T06:20:15.082Z,52.01
2023-12-22T06:21:14.730Z,52.35
2023-12-22T06:22:14.794Z,52.82
2023-12-22T06:23:14.790Z,54.89
2023-12-22T06:24:14.802Z,53.60
2023-12-22T06:25:14.780Z,51.77
2023-12-22T06:26:14.824Z,52.61
2023-12-22T06:27:14.791Z,52.59
2023-12-22T06:28:14.820Z,52.32
2023-12-22T06:29:14.797Z,50.80
2023-12-22T06:30:14.844Z,51.43
2023-12-22T06:31:14.867Z,52.22
2023-12-22T06:32:14.863Z,52.04
2023-12-22T06:33:14.945Z,53.21
2023-12-22T06:34:14.869Z,51.67
2023-12-22T06:35:17.820Z,52.43
2023-12-22T06:36:14.896Z,54.12
2023-12-22T06:37:14.893Z,53.17
2023-12-22T06:38:14.876Z,52.15
2023-12-22T06:39:14.887Z,53.00
2023-12-22T06:40:14.912Z,52.59
2023-12-22T06:41:14.870Z,53.17
2023-12-22T06:42:14.904Z,52.81
2023-12-22T06:43:14.918Z,52.62
2023-12-22T06:44:14.889Z,53.62
2023-12-22T06:45:15.135Z,51.29
2023-12-22T06:46:14.878Z,51.32
2023-12-22T06:47:15.053Z,53.77
2023-12-22T06:48:15.089Z,50.23
2023-12-22T06:49:14.926Z,50.73
2023-12-22T06:50:15.069Z,52.46
2023-12-22T06:51:14.915Z,52.30
2023-12-22T06:52:14.933Z,51.59
2023-12-22T06:53:24.976Z,51.87
2023-12-22T06:54:17.579Z,51.91
2023-12-22T06:55:14.953Z,51.25
2023-12-22T06:56:14.929Z,47.02
2023-12-22T06:57:15.963Z,48.79
2023-12-22T06:58:14.943Z,48.35
2023-12-22T06:59:16.416Z,47.06
2023-12-22T07:00:14.966Z,51.83
2023-12-22T07:01:14.948Z,60.34
2023-12-22T07:02:20.036Z,76.69
2023-12-22T07:03:16.116Z,77.09
2023-12-22T07:04:14.982Z,78.56
2023-12-22T07:05:15.103Z,82.36
2023-12-22T07:06:14.949Z,90.88
2023-12-22T07:07:14.954Z,101.28
2023-12-22T07:08:14.996Z,99.12
2023-12-22T07:09:14.983Z,98.57
2023-12-22T07:10:14.972Z,102.12
2023-12-22T07:11:15.885Z,102.38
2023-12-22T07:12:15.048Z,104.94
2023-12-22T07:13:14.974Z,108.70
2023-12-22T07:14:15.051Z,108.81
2023-12-22T07:15:15.130Z,113.44
2023-12-22T07:16:14.986Z,114.27
2023-12-22T07:17:14.994Z,118.90
2023-12-22T07:18:15.090Z,119.93
2023-12-22T07:19:15.035Z,117.17
2023-12-22T07:20:15.122Z,127.09
2023-12-22T07:21:15.128Z,130.07
2023-12-22T07:22:15.153Z,125.32
2023-12-22T07:23:15.290Z,127.87
2023-12-22T07:24:16.447Z,130.22
2023-12-22T07:25:15.485Z,131.93
2023-12-22T07:26:15.322Z,132.87
2023-12-22T07:27:15.274Z,130.20
2023-12-22T07:28:15.304Z,131.89
2023-12-22T07:29:15.396Z,129.39
2023-12-22T07:30:15.347Z,133.22
2023-12-22T07:31:15.584Z,146.31
2023-12-22T07:32:16.058Z,148.09
2023-12-22T07:33:15.487Z,149.68
2023-12-22T07:34:15.431Z,147.72
2023-12-22T07:35:16.265Z,152.15
2023-12-22T07:36:15.440Z,151.92
2023-12-22T07:37:15.501Z,157.78
2023-12-22T07:38:15.592Z,158.84
2023-12-22T07:39:16.723Z,165.44
2023-12-22T07:40:17.254Z,175.67
2023-12-22T07:41:16.599Z,182.94
2023-12-22T07:42:15.911Z,182.39
2023-12-22T07:43:15.672Z,188.90
2023-12-22T07:44:16.657Z,192.59
2023-12-22T07:45:15.764Z,176.20
2023-12-22T07:46:15.791Z,154.63
2023-12-22T07:47:16.306Z,170.54
2023-12-22T07:48:15.919Z,177.34
2023-12-22T07:49:16.978Z,177.36
2023-12-22T07:50:16.762Z,174.84
2023-12-22T07:51:15.987Z,167.53
2023-12-22T07:52:16.201Z,168.30
2023-12-22T07:53:16.144Z,164.61
2023-12-22T07:54:16.188Z,166.87
2023-12-22T07:55:16.158Z,155.81
2023-12-22T07:56:16.372Z,153.36
2023-12-22T07:57:16.230Z,148.38
2023-12-22T07:58:16.301Z,145.16
2023-12-22T07:59:26.472Z,145.92
2023-12-22T08:00:17.380Z,144.80
2023-12-22T08:01:16.383Z,141.48
2023-12-22T08:02:16.382Z,142.14
2023-12-22T08:03:16.375Z,135.99
2023-12-22T08:04:16.335Z,129.84
2023-12-22T08:05:16.335Z,129.45
2023-12-22T08:06:16.462Z,138.40
2023-12-22T08:07:16.446Z,144.84
2023-12-22T08:08:16.320Z,148.30
2023-12-22T08:09:16.319Z,151.01
2023-12-22T08:10:16.370Z,152.05
2023-12-22T08:11:16.382Z,157.25
2023-12-22T08:12:16.341Z,155.91
2023-12-22T08:13:16.422Z,162.62
2023-12-22T08:14:16.370Z,163.12
2023-12-22T08:15:25.203Z,164.34
2023-12-22T08:16:17.410Z,164.51
2023-12-22T08:17:16.441Z,165.09
2023-12-22T08:18:16.562Z,166.92
2023-12-22T08:19:16.698Z,170.98
2023-12-22T08:20:21.286Z,175.11
2023-12-22T08:21:25.114Z,164.95
2023-12-22T08:22:18.027Z,165.04
2023-12-22T08:23:17.079Z,165.30
2023-12-22T08:24:21.312Z,168.63
2023-12-22T08:25:17.557Z,165.30
2023-12-22T08:26:16.538Z,168.90
2023-12-22T08:27:16.439Z,174.57
2023-12-22T08:28:16.478Z,182.15
2023-12-22T08:29:16.458Z,196.53
2023-12-22T08:30:16.643Z,197.97
2023-12-22T08:31:16.435Z,198.56
2023-12-22T08:32:16.489Z,198.64
2023-12-22T08:33:16.542Z,199.48
2023-12-22T08:34:16.498Z,199.74
2023-12-22T08:35:16.551Z,200.19
2023-12-22T08:36:16.839Z,196.71
2023-12-22T08:37:16.515Z,196.18
2023-12-22T08:38:16.571Z,198.14
2023-12-22T08:39:16.674Z,195.84
2023-12-22T08:40:16.569Z,198.18
2023-12-22T08:41:16.522Z,198.55
2023-12-22T08:42:16.491Z,198.34
2023-12-22T08:43:16.479Z,197.77
2023-12-22T08:44:16.573Z,197.91
2023-12-22T08:45:16.610Z,196.57
2023-12-22T08:46:16.503Z,196.58
2023-12-22T08:47:16.484Z,198.20
2023-12-22T08:48:16.539Z,196.89
2023-12-22T08:49:16.647Z,190.04
2023-12-22T08:50:16.649Z,184.40
2023-12-22T08:51:16.494Z,178.59
2023-12-22T08:52:16.514Z,176.12
2023-12-22T08:53:16.572Z,173.68
2023-12-22T08:54:16.584Z,167.68
2023-12-22T08:55:16.704Z,148.47
2023-12-22T08:56:16.702Z,156.13
2023-12-22T08:57:16.753Z,160.18
2023-12-22T08:58:16.821Z,165.81
2023-12-22T08:59:16.880Z,167.77
2023-12-22T09:00:16.991Z,169.52
2023-12-22T09:01:17.155Z,170.76
2023-12-22T09:02:17.122Z,172.28
2023-12-22T09:03:17.176Z,174.16
2023-12-22T09:04:17.192Z,176.77
2023-12-22T09:05:17.741Z,180.10
2023-12-22T09:06:17.290Z,180.61
2023-12-22T09:07:17.400Z,181.27
2023-12-22T09:08:17.476Z,183.20
2023-12-22T09:09:17.458Z,183.97
2023-12-22T09:10:17.665Z,186.58
2023-12-22T09:11:17.601Z,190.85
2023-12-22T09:12:17.632Z,193.09
2023-12-22T09:13:17.704Z,197.28
2023-12-22T09:14:17.747Z,200.00
2023-12-22T09:15:17.794Z,199.20
2023-12-22T09:16:17.863Z,199.63
2023-12-22T09:17:17.914Z,199.28
2023-12-22T09:18:18.036Z,198.74
2023-12-22T09:19:18.013Z,198.27
2023-12-22T09:20:18.247Z,198.59
2023-12-22T09:21:18.038Z,199.98
2023-12-22T09:22:18.087Z,199.12
2023-12-22T09:23:18.101Z,199.53
2023-12-22T09:24:18.115Z,198.00
2023-12-22T09:25:18.217Z,198.11
2023-12-22T09:26:18.249Z,197.56
2023-12-22T09:27:18.311Z,191.79
2023-12-22T09:28:18.348Z,200.00
2023-12-22T09:29:18.337Z,200.00
2023-12-22T09:30:18.390Z,200.00
2023-12-22T09:31:18.387Z,199.52
2023-12-22T09:32:18.452Z,199.84
2023-12-22T09:33:18.594Z,200.00
2023-12-22T09:34:18.636Z,200.00
2023-12-22T09:35:18.652Z,197.50
2023-12-22T09:36:18.445Z,199.03
2023-12-22T09:37:18.524Z,200.49
2023-12-22T09:38:18.619Z,199.43
2023-12-22T09:39:18.608Z,199.64
2023-12-22T09:40:18.652Z,199.64
2023-12-22T09:41:18.610Z,198.36
2023-12-22T09:42:18.726Z,197.18
2023-12-22T09:43:18.795Z,199.75
2023-12-22T09:44:18.825Z,197.88
2023-12-22T09:45:19.194Z,200.30
2023-12-22T09:46:18.896Z,197.83
2023-12-22T09:47:18.980Z,197.00
2023-12-22T09:48:19.117Z,196.14
2023-12-22T09:49:19.207Z,195.81
2023-12-22T09:50:19.286Z,195.57
2023-12-22T09:51:19.284Z,194.29
2023-12-22T09:52:19.283Z,191.79
2023-12-22T09:53:19.289Z,189.45
2023-12-22T09:54:19.398Z,189.85
2023-12-22T09:55:19.796Z,188.18
2023-12-22T09:56:19.488Z,186.11
2023-12-22T09:57:26.060Z,183.45
2023-12-22T09:58:20.589Z,178.88
2023-12-22T09:59:19.673Z,178.29
2023-12-22T10:00:19.686Z,179.13
2023-12-22T10:01:19.590Z,171.18
2023-12-22T10:02:19.590Z,159.99
2023-12-22T10:03:19.505Z,152.09
2023-12-22T10:04:19.597Z,145.18
2023-12-22T10:05:19.812Z,137.11
2023-12-22T10:06:19.608Z,129.05
2023-12-22T10:07:19.544Z,122.19
2023-12-22T10:08:19.612Z,112.73
2023-12-22T10:09:19.530Z,109.09
2023-12-22T10:10:19.709Z,102.52
2023-12-22T10:11:19.543Z,101.75
2023-12-22T10:12:19.556Z,101.14
2023-12-22T10:13:19.601Z,101.28
2023-12-22T10:14:19.652Z,101.82
2023-12-22T10:15:20.162Z,99.77
2023-12-22T10:16:19.723Z,102.76
2023-12-22T10:17:19.801Z,106.89
2023-12-22T10:18:19.861Z,107.43
2023-12-22T10:19:19.851Z,108.24
2023-12-22T10:20:19.944Z,110.40
2023-12-22T10:21:19.885Z,109.37
2023-12-22T10:22:19.901Z,104.81
2023-12-22T10:23:19.998Z,105.27
2023-12-22T10:24:20.001Z,105.53
2023-12-22T10:25:20.091Z,104.82
2023-12-22T10:26:20.105Z,104.63
2023-12-22T10:27:20.069Z,108.00
2023-12-22T10:28:20.075Z,108.81
2023-12-22T10:29:20.048Z,108.55
2023-12-22T10:30:20.125Z,108.56
2023-12-22T10:31:20.198Z,112.96
2023-12-22T10:32:20.245Z,115.58
2023-12-22T10:33:20.447Z,117.87
2023-12-22T10:34:20.379Z,120.29
2023-12-22T10:35:20.432Z,120.21
2023-12-22T10:36:20.484Z,118.85
2023-12-22T10:37:20.538Z,114.24
2023-12-22T10:38:20.621Z,113.49
2023-12-22T10:39:20.659Z,114.35
2023-12-22T10:40:20.666Z,114.61
2023-12-22T10:41:20.716Z,102.59
2023-12-22T10:42:20.718Z,102.15
2023-12-22T10:43:20.857Z,95.85
2023-12-22T10:44:20.815Z,94.35
2023-12-22T10:45:20.891Z,89.47
2023-12-22T10:46:20.900Z,86.85
2023-12-22T10:47:20.968Z,81.52
2023-12-22T10:48:21.083Z,78.54
2023-12-22T10:49:20.992Z,81.01
2023-12-22T10:50:21.173Z,85.39
2023-12-22T10:51:21.127Z,84.42
2023-12-22T10:52:21.209Z,87.05
2023-12-22T10:53:21.241Z,87.20
2023-12-22T10:54:21.266Z,88.83
2023-12-22T10:55:21.675Z,90.20
2023-12-22T10:56:21.335Z,91.91
2023-12-22T10:57:21.346Z,92.42
2023-12-22T10:58:21.381Z,93.89
2023-12-22T10:59:21.397Z,97.88
2023-12-22T11:00:21.519Z,101.47
2023-12-22T11:01:21.488Z,104.54
2023-12-22T11:02:21.531Z,102.69
2023-12-22T11:03:21.501Z,108.24
2023-12-22T11:04:21.616Z,110.62
2023-12-22T11:05:21.543Z,107.53
2023-12-22T11:06:21.618Z,108.49
2023-12-22T11:07:21.659Z,105.33
2023-12-22T11:08:21.929Z,102.72
2023-12-22T11:09:21.785Z,99.50
2023-12-22T11:10:21.839Z,97.89
2023-12-22T11:11:21.883Z,98.52
2023-12-22T11:12:21.864Z,99.44
2023-12-22T11:13:21.882Z,99.14
2023-12-22T11:14:21.921Z,101.55
2023-12-22T11:15:21.878Z,101.17
2023-12-22T11:16:22.060Z,105.18
2023-12-22T11:17:21.896Z,106.45
2023-12-22T11:18:22.057Z,110.80
2023-12-22T11:19:22.046Z,113.87
2023-12-22T11:20:22.154Z,116.49
2023-12-22T11:21:22.029Z,122.37
2023-12-22T11:22:22.085Z,125.79
2023-12-22T11:23:22.142Z,132.71
2023-12-22T11:24:22.201Z,138.34
2023-12-22T11:25:22.295Z,138.93
2023-12-22T11:26:22.244Z,138.67
2023-12-22T11:27:22.286Z,136.96
2023-12-22T11:28:22.331Z,133.14
2023-12-22T11:29:22.333Z,130.17
2023-12-22T11:30:22.348Z,127.28
2023-12-22T11:31:22.511Z,120.54
2023-12-22T11:32:22.473Z,116.56
2023-12-22T11:33:22.596Z,115.66
2023-12-22T11:34:22.644Z,111.35
2023-12-22T11:35:22.582Z,110.67
2023-12-22T11:36:23.539Z,108.03
2023-12-22T11:37:22.559Z,101.79
2023-12-22T11:38:22.598Z,98.54
2023-12-22T11:39:22.534Z,95.11
2023-12-22T11:40:22.840Z,95.88
2023-12-22T11:41:27.454Z,50.00
2023-12-22T11:42:27.486Z,50.00
2023-12-22T11:43:27.461Z,50.00
2023-12-22T11:44:27.481Z,50.00
2023-12-22T11:45:27.428Z,50.00
2023-12-22T11:46:27.497Z,50.70
2023-12-22T11:47:27.491Z,52.62
2023-12-22T11:48:27.554Z,57.31
2023-12-22T11:49:27.541Z,55.93
2023-12-22T11:50:27.491Z,61.39
2023-12-22T11:51:27.506Z,64.39
2023-12-22T11:52:27.553Z,64.21
2023-12-22T11:53:27.476Z,61.59
2023-12-22T11:54:27.507Z,62.27
2023-12-22T11:55:27.519Z,63.28
2023-12-22T11:56:27.532Z,61.42
2023-12-22T11:57:27.442Z,61.93
2023-12-22T11:58:27.497Z,65.07
2023-12-22T11:59:27.467Z,65.00
2023-12-22T12:00:27.469Z,63.64
2023-12-22T12:01:27.578Z,64.03
2023-12-22T12:02:27.663Z,63.24
2023-12-22T12:03:27.494Z,64.38
2023-12-22T12:04:27.562Z,62.14
2023-12-22T12:05:27.660Z,61.17
2023-12-22T12:06:27.585Z,62.02
2023-12-22T12:07:27.511Z,62.74
2023-12-22T12:08:27.519Z,60.64
2023-12-22T12:09:27.494Z,65.98
2023-12-22T12:10:27.518Z,62.90
2023-12-22T12:11:27.509Z,63.27
2023-12-22T12:12:27.512Z,64.16
2023-12-22T12:13:27.603Z,62.67
2023-12-22T12:14:27.589Z,63.13
2023-12-22T12:15:27.610Z,62.68
2023-12-22T12:16:27.499Z,61.67
2023-12-22T12:17:27.704Z,63.67
2023-12-22T12:18:27.566Z,62.35
2023-12-22T12:19:27.656Z,61.90
2023-12-22T12:20:27.753Z,62.50
2023-12-22T12:21:27.792Z,62.01
2023-12-22T12:22:27.855Z,62.44
2023-12-22T12:23:27.901Z,63.43
2023-12-22T12:24:28.033Z,61.64
2023-12-22T12:25:32.691Z,60.72
2023-12-22T12:26:29.136Z,60.84
2023-12-22T12:27:28.027Z,61.45
2023-12-22T12:28:28.065Z,62.14
2023-12-22T12:29:28.053Z,61.82
2023-12-22T12:30:28.054Z,63.50
2023-12-22T12:31:28.085Z,63.50
2023-12-22T12:32:28.242Z,61.99
2023-12-22T12:33:28.192Z,62.54
2023-12-22T12:34:28.127Z,61.74
2023-12-22T12:35:28.207Z,61.65
2023-12-22T12:36:28.417Z,60.56
2023-12-22T12:37:28.266Z,61.86
2023-12-22T12:38:28.266Z,60.06
2023-12-22T12:39:28.317Z,61.41
2023-12-22T12:40:28.659Z,60.64
2023-12-22T12:41:28.450Z,59.62
2023-12-22T12:42:28.518Z,59.67
2023-12-22T12:43:28.798Z,60.75
2023-12-22T12:44:28.667Z,59.05
2023-12-22T12:45:28.903Z,58.48